createdAt,value
2018-08-17T00:00:04.611Z,57.6
2018-08-17T00:15:05.245Z,58.1
2018-08-17T00:30:04.610Z,58.2
2018-08-17T00:45:05.596Z,58.6
2018-08-17T01:00:05.141Z,59
2018-08-17T01:15:04.615Z,59.5
2018-08-17T01:30:05.071Z,59.7
2018-08-17T01:45:04.567Z,59.8
2018-08-17T02:00:04.529Z,60.4
2018-08-17T02:15:04.950Z,60.4
2018-08-17T02:30:04.624Z,60.7
2018-08-17T03:00:04.680Z,61.1
2018-08-17T03:15:05.138Z,61.5
2018-08-17T03:30:04.900Z,61.7
2018-08-17T03:45:04.992Z,62.1
2018-08-17T04:00:04.871Z,62.4
2018-08-17T04:15:04.523Z,62.9
2018-08-17T04:30:10.014Z,63
2018-08-17T04:45:04.486Z,63.5
2018-08-17T05:00:05.044Z,63.7
2018-08-17T05:15:04.439Z,63.8
2018-08-17T05:30:04.676Z,64.1
2018-08-17T05:45:05.249Z,65
2018-08-17T06:00:04.648Z,65
2018-08-17T06:15:04.578Z,65.2
2018-08-17T06:30:04.888Z,65.2
2018-08-17T06:45:04.401Z,65.6
2018-08-17T07:00:04.839Z,65.9
2018-08-17T07:15:04.263Z,65.9
2018-08-17T07:30:04.916Z,66.1
2018-08-17T07:45:04.404Z,66
2018-08-17T08:00:04.579Z,66
2018-08-17T08:15:04.979Z,65.9
2018-08-17T08:30:05.191Z,66
2018-08-17T08:45:05.158Z,55.6
2018-08-17T09:00:04.702Z,51.9
2018-08-17T09:15:04.624Z,48.9
2018-08-17T09:30:04.518Z,44.3
2018-08-17T09:45:04.531Z,41.8
2018-08-17T10:00:04.679Z,46.5
2018-08-17T10:15:05.084Z,49.4
2018-08-17T10:30:04.709Z,49.9
2018-08-17T10:45:05.105Z,51.7
2018-08-17T11:00:04.499Z,51.1
2018-08-17T11:15:04.980Z,51.7
2018-08-17T11:30:04.595Z,51.3
2018-08-17T11:45:04.989Z,50.7
2018-08-17T12:00:04.522Z,49.9
2018-08-17T12:15:04.946Z,49.8
2018-08-17T12:30:05.068Z,49.2
2018-08-17T12:45:04.606Z,49.4
2018-08-17T13:00:05.088Z,49.8
2018-08-17T13:15:05.001Z,48.8
2018-08-17T13:30:05.195Z,49
2018-08-17T13:45:05.083Z,49.4
2018-08-17T14:00:05.288Z,49.4
2018-08-17T14:15:04.726Z,50.2
2018-08-17T14:30:04.392Z,50.9
2018-08-17T14:45:04.331Z,51.9
2018-08-17T15:00:04.845Z,53
2018-08-17T15:15:04.529Z,53.9
2018-08-17T15:30:05.382Z,56.3
2018-08-17T15:45:04.916Z,58.5
2018-08-17T16:00:04.712Z,59.3
2018-08-17T16:15:05.509Z,60.8
2018-08-17T16:30:05.436Z,61.4
2018-08-17T16:45:04.367Z,62.6
2018-08-17T17:00:04.988Z,63.5
2018-08-17T17:15:04.879Z,63.9
2018-08-17T17:30:04.657Z,64.7
2018-08-17T17:45:04.755Z,65.3
2018-08-17T18:00:05.409Z,65.3
2018-08-17T18:15:04.859Z,66.3
2018-08-17T18:30:04.570Z,66.6
2018-08-17T18:45:04.977Z,66.6
2018-08-17T19:00:04.596Z,66
2018-08-17T19:15:05.359Z,66.4
2018-08-17T19:30:04.797Z,66.6
2018-08-17T19:45:04.751Z,66.9
2018-08-17T20:00:05.167Z,67.1
2018-08-17T20:15:04.535Z,67.4
2018-08-17T20:30:05.260Z,68
2018-08-17T20:45:04.837Z,68.2
2018-08-17T21:00:04.800Z,68.5
2018-08-17T21:15:05.200Z,68.7
2018-08-17T21:30:04.989Z,69.1
2018-08-17T21:45:04.600Z,69.4
2018-08-17T22:00:04.506Z,69.6
2018-08-17T22:15:04.433Z,69.6
2018-08-17T22:30:05.108Z,70.3
2018-08-17T22:45:04.750Z,70.1
2018-08-17T23:00:05.168Z,70.1
2018-08-17T23:15:04.605Z,70.3
2018-08-17T23:30:04.814Z,70.3
2018-08-17T23:45:05.515Z,70.3
